Time;durP1;ratioP1;P1;durP2;ratioP2;P2;SDS_P1;SDS_P2;PMS_P1;PMS_P2;Temp;Humidity;BMP_temperature;BMP_pressure;BME280_temperature;BME280_humidity;BME280_pressure;Samples;Min_cycle;Max_cycle;Signal;HPM_P1;HPM_P2
2021/12/13 00:01:21;;;;;;;3.38;1.40;;;20.90;58.80;;;;;;5028738;28;20283;-43
2021/12/13 00:03:55;;;;;;;4.00;1.70;;;20.90;58.80;;;;;;5026941;28;20655;-44
2021/12/13 00:06:30;;;;;;;6.05;1.55;;;21.00;58.80;;;;;;5026029;28;20243;-52
2021/12/13 00:09:08;;;;;;;3.47;1.20;;;21.00;58.80;;;;;;5026742;28;20312;-46
2021/12/13 00:11:44;;;;;;;4.57;1.52;;;21.00;58.70;;;;;;5027711;28;20298;-49
2021/12/13 00:14:17;;;;;;;3.28;1.20;;;21.00;58.70;;;;;;5026843;28;20286;-49
2021/12/13 00:16:50;;;;;;;3.00;1.20;;;21.00;58.70;;;;;;5026990;28;20923;-48
2021/12/13 00:19:25;;;;;;;4.68;1.38;;;21.00;58.70;;;;;;5027404;28;20899;-46
2021/12/13 00:22:02;;;;;;;3.67;1.63;;;21.10;58.70;;;;;;5027176;28;20275;-54
2021/12/13 00:24:36;;;;;;;4.43;1.23;;;21.10;58.60;;;;;;5027342;28;20636;-53
2021/12/13 00:27:10;;;;;;;2.88;1.00;;;21.10;58.60;;;;;;5025483;28;20653;-48
2021/12/13 00:29:48;;;;;;;4.80;1.48;;;21.10;58.60;;;;;;5025896;28;20207;-47
2021/12/13 00:32:22;;;;;;;3.55;1.13;;;21.20;58.60;;;;;;5026867;28;20387;-45
2021/12/13 00:34:56;;;;;;;3.15;1.20;;;21.20;58.60;;;;;;5027854;28;20195;-44
2021/12/13 00:37:32;;;;;;;3.10;1.10;;;21.20;58.60;;;;;;5026493;28;20263;-47
2021/12/13 00:40:09;;;;;;;4.50;1.50;;;21.20;58.50;;;;;;5026330;28;20302;-46
2021/12/13 00:42:42;;;;;;;4.60;1.27;;;21.30;58.50;;;;;;5026127;28;20227;-49
2021/12/13 00:45:18;;;;;;;4.13;1.20;;;21.30;58.50;;;;;;5027116;28;20287;-53
2021/12/13 00:47:49;;;;;;;3.17;1.63;;;21.30;58.50;;;;;;5026925;28;20847;-53
2021/12/13 00:50:22;;;;;;;3.42;1.27;;;21.30;58.40;;;;;;5025289;28;20279;-47
2021/12/13 00:52:55;;;;;;;4.57;1.48;;;21.30;58.30;;;;;;5025742;28;20226;-50
2021/12/13 00:55:30;;;;;;;4.65;1.40;;;21.40;58.30;;;;;;5027455;28;20275;-49
2021/12/13 00:58:10;;;;;;;3.17;1.17;;;21.40;58.40;;;;;;5026040;28;20279;-45
2021/12/13 01:00:44;;;;;;;3.78;1.42;;;21.40;58.40;;;;;;5025472;28;20275;-45
2021/12/13 01:03:18;;;;;;;3.13;1.17;;;21.40;58.50;;;;;;5027110;28;20283;-48
2021/12/13 01:06:29;;;;;;;1.90;1.00;;;21.40;58.40;;;;;;5027008;28;20322;-45
2021/12/13 01:09:40;;;;;;;4.13;1.35;;;21.50;58.50;;;;;;5027225;28;20266;-47
2021/12/13 01:12:14;;;;;;;4.28;1.13;;;21.50;58.40;;;;;;4996487;28;20266;-51
2021/12/13 01:14:58;;;;;;;1.73;1.05;;;21.50;58.70;;;;;;5027337;28;20201;-45
2021/12/13 01:17:45;;;;;;;2.08;1.00;;;21.60;58.50;;;;;;5025157;28;20235;-45
2021/12/13 01:20:24;;;;;;;2.63;1.20;;;21.60;58.50;;;;;;5026623;28;20196;-51
2021/12/13 01:23:00;;;;;;;4.43;1.30;;;21.60;58.40;;;;;;5025588;28;20572;-50
2021/12/13 01:25:45;;;;;;;4.13;1.27;;;21.70;58.50;;;;;;5026795;28;20282;-49
2021/12/13 01:28:25;;;;;;;2.58;0.98;;;21.70;58.40;;;;;;5026384;28;20559;-43
2021/12/13 01:30:58;;;;;;;2.35;0.90;;;21.70;58.40;;;;;;5023827;28;20626;-50
2021/12/13 01:33:30;;;;;;;2.40;1.00;;;21.80;58.40;;;;;;5024333;28;20228;-45
2021/12/13 01:36:03;;;;;;;1.80;1.00;;;21.80;58.40;;;;;;5025442;28;20208;-50
2021/12/13 01:38:37;;;;;;;2.20;1.10;;;21.80;58.30;;;;;;5025762;28;20316;-44
2021/12/13 01:41:11;;;;;;;1.70;0.98;;;21.80;58.30;;;;;;5025447;28;21584;-51
2021/12/13 01:43:46;;;;;;;1.48;0.73;;;21.80;58.40;;;;;;5026387;28;20307;-44
2021/12/13 01:46:17;;;;;;;3.30;1.10;;;21.90;58.50;;;;;;5025721;28;20298;-45
2021/12/13 01:48:49;;;;;;;2.55;1.15;;;21.90;58.40;;;;;;5026297;28;20295;-47
2021/12/13 01:51:22;;;;;;;1.73;1.02;;;21.90;58.40;;;;;;5026054;28;20519;-43
2021/12/13 01:53:57;;;;;;;2.22;0.90;;;21.90;58.50;;;;;;5026265;28;20308;-47
2021/12/13 01:56:41;;;;;;;2.20;0.90;;;22.00;58.40;;;;;;5025195;28;20738;-50
2021/12/13 01:59:42;;;;;;;2.42;0.82;;;22.00;58.40;;;;;;5027291;28;20235;-46
2021/12/13 02:02:25;;;;;;;3.00;0.90;;;22.00;58.30;;;;;;5029733;28;20223;-48
2021/12/13 02:05:02;;;;;;;2.17;1.05;;;22.10;58.30;;;;;;5029622;28;20291;-45
2021/12/13 02:07:40;;;;;;;1.35;0.90;;;22.10;58.30;;;;;;5029364;28;20261;-44
2021/12/13 02:10:16;;;;;;;0.80;0.80;;;22.20;58.30;;;;;;5028300;28;20687;-52
2021/12/13 02:12:54;;;;;;;1.73;0.85;;;22.20;58.30;;;;;;5028772;28;20294;-53
2021/12/13 02:18:18;;;;;;;2.15;0.77;;;22.30;58.20;;;;;;5029813;28;20231;-46
2021/12/13 02:20:53;;;;;;;1.23;0.75;;;22.30;58.10;;;;;;5029496;28;20202;-54
2021/12/13 02:23:27;;;;;;;1.95;0.85;;;22.30;58.10;;;;;;5028714;28;20251;-51
2021/12/13 02:25:58;;;;;;;1.52;0.80;;;22.30;57.90;;;;;;5030041;28;20298;-49
2021/12/13 02:28:32;;;;;;;1.75;0.77;;;22.40;58.00;;;;;;5028355;28;20251;-47
2021/12/13 02:31:06;;;;;;;1.83;0.90;;;22.40;58.10;;;;;;5027704;28;20236;-49
2021/12/13 02:33:44;;;;;;;1.48;0.77;;;22.40;58.10;;;;;;5028774;28;20650;-49
2021/12/13 02:36:18;;;;;;;1.25;0.80;;;22.50;58.20;;;;;;5029343;28;20279;-51
2021/12/13 02:38:52;;;;;;;1.85;1.05;;;22.50;58.20;;;;;;5030018;28;20302;-56
2021/12/13 02:41:25;;;;;;;1.10;0.65;;;22.50;58.10;;;;;;5028738;28;20247;-53
2021/12/13 02:44:05;;;;;;;1.67;0.80;;;22.60;58.10;;;;;;5028585;28;20232;-49
2021/12/13 02:46:38;;;;;;;1.70;0.90;;;22.60;58.10;;;;;;5029208;28;20303;-53
2021/12/13 02:49:11;;;;;;;1.23;0.60;;;22.60;58.00;;;;;;5029694;28;20218;-45
2021/12/13 02:51:45;;;;;;;0.80;0.60;;;22.70;58.00;;;;;;5026051;28;20719;-56
2021/12/13 02:54:21;;;;;;;1.00;0.70;;;22.70;57.90;;;;;;5027346;28;20402;-56
2021/12/13 02:56:56;;;;;;;1.38;0.90;;;22.80;57.90;;;;;;5027928;28;20291;-52
2021/12/13 02:59:29;;;;;;;0.88;0.70;;;22.80;57.90;;;;;;5028875;28;20288;-52
2021/12/13 03:02:03;;;;;;;0.70;0.63;;;22.80;57.80;;;;;;5025928;28;20279;-49
2021/12/13 03:04:33;;;;;;;1.25;0.60;;;22.80;57.70;;;;;;5027939;28;20210;-45
2021/12/13 03:07:09;;;;;;;0.88;0.63;;;22.90;57.60;;;;;;5028639;28;20766;-45
2021/12/13 03:09:43;;;;;;;2.13;0.60;;;22.90;57.40;;;;;;5027177;28;20286;-46
2021/12/13 03:12:17;;;;;;;0.98;0.60;;;22.90;57.30;;;;;;5025917;28;20282;-51
2021/12/13 03:14:50;;;;;;;1.40;0.52;;;23.00;57.30;;;;;;5028626;28;20298;-49
2021/12/13 03:17:27;;;;;;;1.85;0.70;;;23.00;57.30;;;;;;5026055;28;20303;-52
2021/12/13 03:20:12;;;;;;;1.02;0.60;;;23.00;57.20;;;;;;5028114;28;20282;-53
2021/12/13 03:23:05;;;;;;;1.52;0.70;;;23.00;57.20;;;;;;5028852;28;20597;-56
2021/12/13 03:25:56;;;;;;;1.27;0.68;;;23.00;57.20;;;;;;5027507;28;20196;-56
2021/12/13 03:28:42;;;;;;;0.95;0.55;;;23.00;57.20;;;;;;5027396;28;20817;-56
2021/12/13 03:31:15;;;;;;;0.88;0.82;;;23.10;57.20;;;;;;5026796;28;20321;-53
2021/12/13 03:33:51;;;;;;;1.13;0.60;;;23.10;57.10;;;;;;5028580;28;20246;-47
2021/12/13 03:36:25;;;;;;;1.13;0.70;;;23.10;57.10;;;;;;5028531;28;20413;-50
2021/12/13 03:38:58;;;;;;;0.80;0.80;;;23.10;57.10;;;;;;5026899;28;20227;-49
2021/12/13 03:41:31;;;;;;;1.30;0.68;;;23.10;57.00;;;;;;5027736;28;20675;-51
2021/12/13 03:44:05;;;;;;;1.23;0.73;;;23.10;56.90;;;;;;5028316;28;20283;-45
2021/12/13 03:46:36;;;;;;;0.80;0.60;;;23.20;56.90;;;;;;5028705;28;20315;-51
2021/12/13 03:49:09;;;;;;;2.92;1.00;;;23.20;56.90;;;;;;5027357;28;20303;-48
2021/12/13 03:51:42;;;;;;;2.83;1.00;;;23.10;56.90;;;;;;5026905;28;20223;-50
2021/12/13 03:54:16;;;;;;;1.83;0.80;;;23.20;56.90;;;;;;5027760;28;20294;-47
2021/12/13 03:56:50;;;;;;;3.78;0.73;;;23.10;56.90;;;;;;5027808;28;20295;-50
2021/12/13 03:59:24;;;;;;;2.85;0.80;;;23.10;56.90;;;;;;5027978;28;20196;-48
2021/12/13 04:01:57;;;;;;;3.97;0.68;;;23.10;56.90;;;;;;5027548;28;20205;-46
2021/12/13 04:04:31;;;;;;;1.55;0.90;;;23.20;56.90;;;;;;5027997;28;20280;-52
2021/12/13 04:07:07;;;;;;;1.60;0.80;;;23.10;56.90;;;;;;5027027;28;20266;-48
2021/12/13 04:09:38;;;;;;;1.27;0.70;;;23.10;56.90;;;;;;5025604;28;20188;-48
2021/12/13 04:12:14;;;;;;;2.08;0.80;;;23.20;56.90;;;;;;5026477;28;20280;-47
2021/12/13 04:14:48;;;;;;;1.17;0.70;;;23.10;56.90;;;;;;5027501;28;20192;-40
2021/12/13 04:17:36;;;;;;;3.72;1.52;;;23.10;56.70;;;;;;5025731;28;20220;-41
2021/12/13 04:20:10;;;;;;;2.38;1.10;;;23.10;56.40;;;;;;5027430;28;20206;-43
2021/12/13 04:22:48;;;;;;;6.15;0.90;;;23.00;56.40;;;;;;5027446;28;20204;-42
2021/12/13 04:25:20;;;;;;;1.20;0.50;;;22.90;56.40;;;;;;5026571;28;20706;-44
2021/12/13 04:27:58;;;;;;;0.88;0.60;;;22.80;56.50;;;;;;5027550;28;20311;-44
2021/12/13 04:30:32;;;;;;;0.90;0.40;;;22.70;56.80;;;;;;5027708;28;20283;-41
2021/12/13 04:33:06;;;;;;;0.80;0.50;;;22.60;57.00;;;;;;5026213;28;20388;-46
2021/12/13 04:35:38;;;;;;;0.40;0.30;;;22.50;57.10;;;;;;5026198;28;20638;-47
2021/12/13 04:38:09;;;;;;;1.85;0.50;;;22.40;57.30;;;;;;5027129;28;20307;-46
2021/12/13 04:40:42;;;;;;;0.95;0.40;;;22.30;57.70;;;;;;5027667;28;20283;-51
2021/12/13 04:43:17;;;;;;;2.28;0.70;;;22.20;58.00;;;;;;5025528;28;20271;-47
2021/12/13 04:45:51;;;;;;;2.13;0.60;;;22.10;58.30;;;;;;5026175;28;20286;-43
2021/12/13 04:48:23;;;;;;;2.97;1.05;;;22.10;58.60;;;;;;5026408;28;20318;-41
2021/12/13 04:50:58;;;;;;;2.22;0.80;;;22.00;58.90;;;;;;5028050;28;20256;-50
2021/12/13 04:53:33;;;;;;;1.50;0.73;;;21.90;59.20;;;;;;5026355;28;20271;-47
2021/12/13 04:56:08;;;;;;;3.60;0.85;;;21.80;59.40;;;;;;5024559;28;20296;-45
2021/12/13 04:58:42;;;;;;;1.95;0.50;;;21.70;59.40;;;;;;5027117;28;20335;-44
2021/12/13 05:01:16;;;;;;;2.50;0.65;;;21.70;59.60;;;;;;5026708;28;20259;-46
2021/12/13 05:03:49;;;;;;;3.33;0.68;;;21.70;59.90;;;;;;5026561;28;20283;-44
2021/12/13 05:06:22;;;;;;;1.88;1.08;;;21.70;59.90;;;;;;5024626;28;21065;-44
2021/12/13 05:08:56;;;;;;;2.00;0.95;;;21.80;59.90;;;;;;5025817;28;20227;-44
2021/12/13 05:11:32;;;;;;;0.60;0.60;;;21.80;59.80;;;;;;5027204;28;20196;-46
2021/12/13 05:14:06;;;;;;;1.30;0.70;;;21.80;60.50;;;;;;5026409;28;20231;-45
2021/12/13 05:16:46;;;;;;;1.42;0.80;;;21.80;59.80;;;;;;5025878;28;20299;-54
2021/12/13 05:19:18;;;;;;;1.10;0.90;;;21.80;59.80;;;;;;5026151;28;20310;-45
2021/12/13 05:21:52;;;;;;;1.20;0.90;;;21.90;59.80;;;;;;5025057;28;20635;-50
2021/12/13 05:24:24;;;;;;;1.25;0.80;;;21.90;59.70;;;;;;5026787;28;20739;-47
2021/12/13 05:26:59;;;;;;;3.85;1.23;;;21.90;59.70;;;;;;5026851;28;20200;-50
2021/12/13 05:29:34;;;;;;;1.65;1.00;;;21.90;59.60;;;;;;5026780;28;20206;-47
2021/12/13 05:32:15;;;;;;;0.80;0.70;;;21.90;59.60;;;;;;5026932;28;20745;-45
2021/12/13 05:34:50;;;;;;;1.48;1.00;;;21.90;59.60;;;;;;5027151;28;20235;-48
2021/12/13 05:37:22;;;;;;;1.75;0.75;;;22.00;59.60;;;;;;5029171;28;20290;-47
2021/12/13 05:40:02;;;;;;;1.92;0.80;;;22.00;59.50;;;;;;5029731;28;20287;-44
2021/12/13 05:42:41;;;;;;;1.15;0.90;;;22.00;59.50;;;;;;5030201;28;20294;-44
2021/12/13 05:45:16;;;;;;;1.05;0.80;;;22.00;59.40;;;;;;5030111;28;20721;-47
2021/12/13 05:47:59;;;;;;;1.23;0.95;;;22.10;59.50;;;;;;5030666;28;20306;-44
2021/12/13 05:50:34;;;;;;;1.20;0.93;;;22.10;59.40;;;;;;5030108;28;20220;-46
2021/12/13 05:53:10;;;;;;;1.00;0.88;;;22.10;59.60;;;;;;5029429;28;20223;-46
2021/12/13 05:55:54;;;;;;;1.10;1.00;;;22.10;59.30;;;;;;5029268;28;20288;-45
2021/12/13 05:58:49;;;;;;;2.28;1.10;;;22.10;59.20;;;;;;5030496;28;20797;-50
2021/12/13 06:01:27;;;;;;;1.50;0.98;;;22.10;59.20;;;;;;5017738;28;20275;-46
2021/12/13 06:04:12;;;;;;;2.15;1.23;;;22.10;59.20;;;;;;5028128;28;20279;-44
2021/12/13 06:06:49;;;;;;;1.25;1.02;;;22.10;59.10;;;;;;5028973;28;20282;-45
2021/12/13 06:09:45;;;;;;;1.58;1.15;;;22.20;59.20;;;;;;5028819;28;20255;-45
2021/12/13 06:12:18;;;;;;;2.08;1.10;;;22.20;59.10;;;;;;5026785;28;20277;-50
2021/12/13 06:14:48;;;;;;;1.58;1.10;;;22.20;59.00;;;;;;5030612;28;20223;-46
2021/12/13 06:17:28;;;;;;;1.40;1.30;;;22.20;59.00;;;;;;5027581;28;20248;-45
2021/12/13 06:20:01;;;;;;;1.45;1.00;;;22.20;59.00;;;;;;5029458;28;20276;-46
2021/12/13 06:22:35;;;;;;;2.00;1.02;;;22.20;58.90;;;;;;5030049;28;20242;-52
2021/12/13 06:25:09;;;;;;;1.25;1.05;;;22.20;58.90;;;;;;5030530;28;20219;-50
2021/12/13 06:27:46;;;;;;;1.23;0.82;;;22.20;58.90;;;;;;5026189;28;20318;-45
2021/12/13 06:30:23;;;;;;;1.45;1.15;;;22.20;58.90;;;;;;5024075;28;20295;-47
2021/12/13 06:32:59;;;;;;;1.27;1.13;;;22.20;58.90;;;;;;5028581;28;20238;-44
2021/12/13 06:35:46;;;;;;;1.13;1.10;;;22.20;58.90;;;;;;5028826;28;20204;-45
2021/12/13 06:38:38;;;;;;;1.33;1.23;;;22.20;58.80;;;;;;5029284;28;20355;-52
2021/12/13 06:41:19;;;;;;;1.40;1.27;;;22.20;58.80;;;;;;5029269;28;20602;-46
2021/12/13 06:43:52;;;;;;;2.60;1.13;;;22.20;58.90;;;;;;5028377;28;20283;-51
2021/12/13 06:46:45;;;;;;;1.08;0.98;;;22.20;58.70;;;;;;5028121;28;20715;-54
2021/12/13 06:49:22;;;;;;;1.45;1.23;;;22.20;58.70;;;;;;5029613;28;20315;-45
2021/12/13 06:51:57;;;;;;;2.20;1.20;;;22.20;58.70;;;;;;5028454;28;20242;-52
2021/12/13 06:54:37;;;;;;;0.95;0.95;;;22.20;58.70;;;;;;5028910;28;20187;-46
2021/12/13 06:57:14;;;;;;;1.80;1.02;;;22.20;58.80;;;;;;5028871;28;20218;-48
2021/12/13 06:59:52;;;;;;;1.67;1.20;;;22.20;58.70;;;;;;5025079;28;20208;-49
2021/12/13 07:02:27;;;;;;;1.23;0.90;;;22.20;58.70;;;;;;5029167;28;20283;-43
2021/12/13 07:05:02;;;;;;;1.65;0.65;;;22.20;58.70;;;;;;5027805;28;20279;-43
2021/12/13 07:07:37;;;;;;;1.38;0.80;;;22.20;58.70;;;;;;5027758;28;20302;-46
2021/12/13 07:10:15;;;;;;;1.65;0.70;;;22.10;58.70;;;;;;5027067;28;20699;-47
2021/12/13 07:12:49;;;;;;;1.15;0.70;;;22.10;58.90;;;;;;5028315;28;20280;-47
2021/12/13 07:15:32;;;;;;;3.55;0.90;;;22.00;58.80;;;;;;5029896;28;20628;-47
2021/12/13 07:18:11;;;;;;;1.52;0.60;;;21.90;58.90;;;;;;5029121;28;20336;-53
2021/12/13 07:20:47;;;;;;;2.38;0.73;;;21.90;58.90;;;;;;5028449;28;20238;-46
2021/12/13 07:23:18;;;;;;;1.77;0.68;;;21.90;59.00;;;;;;5027036;28;20220;-45
2021/12/13 07:25:51;;;;;;;1.83;0.63;;;21.90;59.10;;;;;;5028566;28;20275;-46
2021/12/13 07:28:36;;;;;;;1.77;0.77;;;21.90;59.70;;;;;;5027550;28;20228;-46
2021/12/13 07:31:09;;;;;;;1.85;0.70;;;21.90;59.20;;;;;;5023629;28;20198;-45
2021/12/13 07:33:43;;;;;;;1.27;0.70;;;21.90;59.20;;;;;;5026732;28;20274;-47
2021/12/13 07:36:28;;;;;;;1.33;0.60;;;21.90;59.20;;;;;;5027966;28;20640;-50
2021/12/13 07:39:01;;;;;;;1.15;0.88;;;21.80;59.20;;;;;;5027918;28;20310;-47
2021/12/13 07:41:43;;;;;;;1.17;0.80;;;21.90;59.20;;;;;;5026808;28;20200;-52
2021/12/13 07:44:27;;;;;;;2.80;0.70;;;21.90;59.30;;;;;;5027543;28;20283;-46
2021/12/13 07:47:05;;;;;;;2.35;0.90;;;21.90;59.30;;;;;;5027245;28;20200;-49
2021/12/13 07:49:38;;;;;;;0.88;0.75;;;21.90;59.20;;;;;;5027528;28;20303;-49
2021/12/13 07:52:11;;;;;;;2.08;0.88;;;21.80;59.20;;;;;;5027188;28;20291;-48
2021/12/13 07:54:45;;;;;;;1.08;0.73;;;21.80;59.20;;;;;;5026825;28;20295;-47
2021/12/13 07:57:24;;;;;;;2.03;1.00;;;21.80;59.20;;;;;;5026398;28;20666;-48
2021/12/13 07:59:55;;;;;;;0.73;0.60;;;21.80;59.20;;;;;;5029159;28;20296;-51
2021/12/13 08:02:31;;;;;;;1.20;0.90;;;21.80;59.20;;;;;;5024316;28;20279;-49
2021/12/13 08:05:09;;;;;;;1.00;0.73;;;21.80;59.10;;;;;;5026352;28;20864;-46
2021/12/13 08:07:47;;;;;;;0.70;0.70;;;21.80;59.10;;;;;;5026817;28;20231;-50
2021/12/13 08:10:24;;;;;;;1.60;0.85;;;21.80;59.10;;;;;;5027165;28;20294;-51
2021/12/13 08:12:57;;;;;;;1.17;1.02;;;21.80;59.10;;;;;;5026250;28;20282;-49
2021/12/13 08:15:31;;;;;;;1.10;0.80;;;21.80;59.10;;;;;;5027404;28;20279;-44
2021/12/13 08:18:03;;;;;;;0.85;0.80;;;21.80;59.10;;;;;;5025464;28;20251;-47
2021/12/13 08:20:36;;;;;;;1.58;0.90;;;21.80;59.00;;;;;;5026825;28;20298;-46
2021/12/13 08:23:14;;;;;;;1.75;0.80;;;21.80;59.00;;;;;;5027602;28;20358;-50
2021/12/13 08:25:46;;;;;;;1.02;0.93;;;21.80;59.00;;;;;;5027796;28;20196;-51
2021/12/13 08:28:19;;;;;;;1.98;1.08;;;21.80;59.00;;;;;;5025547;28;20226;-49
2021/12/13 08:30:52;;;;;;;1.10;0.80;;;21.80;59.00;;;;;;5025726;28;20282;-47
2021/12/13 08:33:26;;;;;;;2.15;0.90;;;21.80;58.90;;;;;;5027532;28;20283;-46
2021/12/13 08:36:01;;;;;;;1.27;1.05;;;21.80;59.00;;;;;;5026493;28;20870;-48
2021/12/13 08:38:44;;;;;;;1.27;0.95;;;21.80;58.90;;;;;;5025396;28;20235;-47
2021/12/13 08:41:27;;;;;;;0.80;0.73;;;21.80;59.00;;;;;;5028216;28;20612;-47
2021/12/13 08:44:01;;;;;;;1.67;0.90;;;21.80;58.90;;;;;;5026697;28;20196;-46
2021/12/13 08:46:42;;;;;;;1.80;1.00;;;21.80;58.90;;;;;;5027744;28;20630;-56
2021/12/13 08:49:23;;;;;;;1.52;0.98;;;21.80;58.90;;;;;;5026159;28;20319;-45
2021/12/13 08:52:03;;;;;;;0.80;0.80;;;21.80;58.90;;;;;;5025890;28;20283;-50
2021/12/13 08:54:45;;;;;;;1.10;1.00;;;21.70;58.90;;;;;;5025928;28;20204;-52
2021/12/13 08:57:34;;;;;;;0.93;0.80;;;21.70;58.90;;;;;;5026634;28;20227;-47
2021/12/13 09:00:23;;;;;;;0.80;0.70;;;21.70;58.90;;;;;;5027510;28;20283;-47
2021/12/13 09:02:57;;;;;;;1.58;1.00;;;21.70;58.80;;;;;;5026691;28;20633;-51
2021/12/13 09:05:31;;;;;;;1.10;1.00;;;21.70;58.80;;;;;;5024515;28;20287;-55
2021/12/13 09:08:04;;;;;;;0.90;0.90;;;21.70;58.80;;;;;;5025697;28;20695;-50
2021/12/13 09:10:48;;;;;;;1.10;1.00;;;21.80;58.80;;;;;;5025789;28;20235;-46
2021/12/13 09:13:21;;;;;;;1.42;0.82;;;21.70;58.80;;;;;;5027157;28;20279;-54
2021/12/13 09:15:59;;;;;;;0.85;0.85;;;21.70;58.80;;;;;;5026461;28;20232;-53
2021/12/13 09:18:30;;;;;;;1.38;0.88;;;21.70;58.80;;;;;;5025601;28;20698;-48
2021/12/13 09:21:03;;;;;;;1.10;1.00;;;21.70;58.80;;;;;;5024804;28;20642;-52
2021/12/13 09:23:39;;;;;;;1.83;1.13;;;21.70;58.80;;;;;;5026135;28;20282;-58
2021/12/13 09:26:14;;;;;;;2.47;1.00;;;21.70;58.80;;;;;;5024240;28;20219;-48
2021/12/13 09:28:49;;;;;;;2.65;1.05;;;21.70;58.80;;;;;;5023734;28;20314;-53
2021/12/13 09:31:23;;;;;;;1.02;0.80;;;21.70;59.30;;;;;;5023693;28;20322;-50
2021/12/13 09:33:55;;;;;;;1.10;0.90;;;21.70;58.70;;;;;;5027073;28;20200;-49
2021/12/13 09:36:27;;;;;;;1.55;1.27;;;21.70;58.70;;;;;;5027132;28;20275;-47
2021/12/13 09:39:02;;;;;;;0.77;0.73;;;21.60;58.70;;;;;;5025811;28;20332;-56
2021/12/13 09:41:39;;;;;;;0.88;0.80;;;21.60;58.70;;;;;;5025513;28;20207;-53
2021/12/13 09:44:20;;;;;;;1.00;0.90;;;21.60;58.80;;;;;;5026774;28;20291;-55
2021/12/13 09:46:54;;;;;;;1.30;0.80;;;21.60;58.70;;;;;;5026538;28;20220;-57
2021/12/13 09:49:31;;;;;;;1.15;0.90;;;21.60;58.70;;;;;;5026889;28;20236;-58
2021/12/13 09:52:08;;;;;;;1.13;1.00;;;21.60;58.60;;;;;;5026114;28;20288;-54
2021/12/13 09:54:40;;;;;;;0.93;0.82;;;21.60;58.60;;;;;;5026474;28;20283;-52
2021/12/13 09:57:17;;;;;;;1.30;1.00;;;21.60;58.60;;;;;;5024811;28;20235;-46
2021/12/13 09:59:51;;;;;;;0.80;0.80;;;21.60;58.70;;;;;;5025295;28;20285;-54
2021/12/13 10:02:25;;;;;;;0.70;0.70;;;21.60;58.70;;;;;;5027255;28;20279;-48
2021/12/13 10:04:56;;;;;;;0.80;0.80;;;21.60;58.70;;;;;;5030106;28;20288;-51
2021/12/13 10:07:31;;;;;;;1.20;0.90;;;21.60;58.70;;;;;;5021433;28;20272;-49
2021/12/13 10:10:08;;;;;;;1.10;0.98;;;21.60;58.70;;;;;;5034833;28;20306;-45
2021/12/13 10:12:44;;;;;;;0.98;0.77;;;21.50;58.60;;;;;;5022073;28;20239;-49
2021/12/13 10:15:19;;;;;;;1.83;1.20;;;21.50;58.60;;;;;;5023576;28;20206;-52
2021/12/13 10:17:53;;;;;;;1.27;0.90;;;21.50;58.60;;;;;;5023367;28;20691;-48
2021/12/13 10:20:27;;;;;;;0.77;0.77;;;21.50;58.60;;;;;;5027259;28;20287;-53
2021/12/13 10:22:58;;;;;;;0.80;0.80;;;21.50;58.60;;;;;;5030729;28;20303;-49
2021/12/13 10:25:31;;;;;;;0.73;0.73;;;21.50;58.60;;;;;;5029541;28;20312;-49
2021/12/13 10:28:09;;;;;;;1.00;0.90;;;21.50;58.60;;;;;;5030669;28;20647;-52
2021/12/13 10:30:43;;;;;;;0.90;0.73;;;21.50;58.60;;;;;;5030294;28;20322;-44
2021/12/13 10:33:18;;;;;;;1.65;0.90;;;21.50;58.60;;;;;;5029134;28;20709;-52
2021/12/13 10:35:49;;;;;;;0.90;0.85;;;21.50;58.60;;;;;;5029308;28;20286;-50
2021/12/13 10:38:23;;;;;;;1.05;0.90;;;21.40;58.50;;;;;;5030800;28;20321;-55
2021/12/13 10:40:57;;;;;;;1.15;0.90;;;21.40;58.50;;;;;;5029780;28;20371;-53
2021/12/13 10:43:32;;;;;;;0.80;0.70;;;21.40;58.60;;;;;;5030279;28;20285;-50
2021/12/13 10:46:07;;;;;;;1.35;0.80;;;21.40;58.70;;;;;;5028616;28;20315;-50
2021/12/13 10:48:44;;;;;;;1.00;0.90;;;21.40;58.60;;;;;;5027988;28;20399;-50
2021/12/13 10:51:19;;;;;;;1.52;0.82;;;21.40;58.60;;;;;;5031734;28;20299;-55
2021/12/13 10:53:52;;;;;;;0.77;0.77;;;21.40;58.60;;;;;;5029463;28;20234;-53
2021/12/13 10:56:25;;;;;;;0.98;0.80;;;21.40;58.60;;;;;;5028172;28;20686;-52
2021/12/13 10:59:01;;;;;;;1.10;0.90;;;21.40;58.60;;;;;;5025360;28;20307;-48
2021/12/13 11:01:36;;;;;;;1.13;0.88;;;21.40;58.60;;;;;;5027599;28;20470;-54
2021/12/13 11:04:09;;;;;;;1.02;0.90;;;21.40;58.60;;;;;;5031500;28;20231;-50
2021/12/13 11:06:44;;;;;;;0.90;0.70;;;21.40;58.60;;;;;;5030532;28;20199;-52
2021/12/13 11:09:19;;;;;;;1.30;0.80;;;21.40;58.50;;;;;;5030273;28;20661;-49
2021/12/13 11:11:53;;;;;;;1.52;0.90;;;21.40;58.50;;;;;;5031919;28;20576;-45
2021/12/13 11:14:27;;;;;;;0.93;0.80;;;21.30;58.50;;;;;;5019577;28;20234;-48
2021/12/13 11:16:59;;;;;;;0.90;0.70;;;21.30;58.50;;;;;;5028345;28;20279;-50
2021/12/13 11:19:34;;;;;;;0.70;0.70;;;21.30;58.50;;;;;;5029659;28;20298;-50
2021/12/13 11:22:07;;;;;;;1.02;0.80;;;21.30;58.50;;;;;;5030831;28;20282;-49
2021/12/13 11:24:39;;;;;;;0.82;0.80;;;21.30;58.60;;;;;;5030802;28;20777;-48
2021/12/13 11:27:14;;;;;;;1.42;0.70;;;21.30;58.70;;;;;;5029099;28;20196;-52
2021/12/13 11:29:50;;;;;;;0.80;0.80;;;21.30;58.70;;;;;;5029463;28;20225;-55
2021/12/13 11:32:49;;;;;;;0.98;0.75;;;21.30;58.70;;;;;;5029565;28;20628;-57
2021/12/13 11:35:54;;;;;;;0.88;0.70;;;21.30;58.60;;;;;;5015989;28;20224;-54
2021/12/13 11:39:05;;;;;;;0.70;0.70;;;21.30;58.50;;;;;;5030199;28;20232;-48
2021/12/13 11:42:04;;;;;;;1.13;0.88;;;21.30;58.50;;;;;;4950791;28;20290;-51
2021/12/13 11:44:57;;;;;;;1.00;0.82;;;21.30;58.50;;;;;;5044742;28;20286;-57
2021/12/13 11:48:04;;;;;;;0.90;0.90;;;21.20;58.50;;;;;;5028857;28;20299;-57
2021/12/13 11:51:25;;;;;;;0.80;0.70;;;21.20;58.50;;;;;;5019655;28;20660;-57
2021/12/13 11:54:26;;;;;;;0.80;0.80;;;21.20;58.50;;;;;;5029092;28;20291;-52
2021/12/13 11:57:32;;;;;;;1.15;0.90;;;21.20;58.50;;;;;;5011783;28;20302;-52
2021/12/13 12:00:31;;;;;;;1.08;0.80;;;21.20;58.50;;;;;;5025347;28;20308;-53
2021/12/13 12:03:42;;;;;;;1.00;0.80;;;21.20;58.50;;;;;;5017953;28;20279;-45
2021/12/13 12:06:55;;;;;;;0.80;0.80;;;21.20;58.50;;;;;;5020439;28;20727;-47
2021/12/13 12:09:53;;;;;;;1.00;0.90;;;21.20;58.60;;;;;;5012758;28;20702;-48
2021/12/13 12:12:46;;;;;;;1.05;0.80;;;21.20;58.60;;;;;;5018757;28;20288;-49
2021/12/13 12:15:21;;;;;;;1.08;0.70;;;21.20;58.50;;;;;;5030622;28;20254;-48
2021/12/13 12:17:53;;;;;;;0.70;0.70;;;21.10;58.60;;;;;;5029275;28;20298;-47
2021/12/13 12:20:29;;;;;;;0.90;0.90;;;21.10;58.60;;;;;;5030487;28;20287;-48
2021/12/13 12:23:01;;;;;;;0.80;0.70;;;21.10;58.60;;;;;;5029700;28;20283;-44
2021/12/13 12:25:34;;;;;;;0.88;0.60;;;21.10;58.60;;;;;;5011946;28;20648;-49
2021/12/13 12:28:07;;;;;;;0.80;0.70;;;21.10;58.60;;;;;;5029902;28;20299;-42
2021/12/13 12:30:42;;;;;;;0.80;0.80;;;21.10;58.50;;;;;;5028924;28;20270;-43
2021/12/13 12:33:21;;;;;;;0.70;0.70;;;21.10;58.50;;;;;;5027334;28;20280;-47
2021/12/13 12:35:51;;;;;;;0.80;0.80;;;21.10;58.50;;;;;;5013851;28;20703;-45
2021/12/13 12:38:43;;;;;;;0.85;0.85;;;21.10;58.60;;;;;;5027915;28;20306;-46
2021/12/13 12:41:47;;;;;;;1.63;0.80;;;21.10;58.60;;;;;;4986352;28;20247;-45
2021/12/13 12:44:20;;;;;;;0.90;0.90;;;21.10;58.60;;;;;;5026778;28;20243;-45
2021/12/13 12:46:53;;;;;;;0.88;0.68;;;21.10;58.60;;;;;;5028250;28;20240;-44
2021/12/13 12:49:26;;;;;;;1.00;0.80;;;21.10;58.60;;;;;;5028367;28;20307;-47
2021/12/13 12:52:08;;;;;;;0.90;0.90;;;21.00;58.60;;;;;;5029132;28;20284;-44
2021/12/13 12:54:40;;;;;;;1.40;0.80;;;21.00;58.60;;;;;;5027836;28;20671;-49
2021/12/13 12:57:11;;;;;;;0.63;0.63;;;21.00;58.60;;;;;;5027433;28;20235;-44
2021/12/13 12:59:43;;;;;;;0.93;0.80;;;21.00;58.70;;;;;;5029360;28;20286;-45
2021/12/13 13:02:18;;;;;;;0.75;0.75;;;21.00;58.70;;;;;;5016459;28;20289;-44
2021/12/13 13:04:50;;;;;;;0.90;0.77;;;21.00;58.60;;;;;;5027435;28;20207;-47
2021/12/13 13:07:23;;;;;;;0.70;0.70;;;21.00;58.60;;;;;;5027978;28;20299;-44
2021/12/13 13:09:56;;;;;;;1.05;0.95;;;21.00;58.60;;;;;;5027334;28;20306;-47
2021/12/13 13:12:32;;;;;;;0.75;0.75;;;21.00;58.60;;;;;;5028624;28;20227;-49
2021/12/13 13:15:06;;;;;;;0.88;0.88;;;21.00;58.60;;;;;;5028346;28;20602;-47
2021/12/13 13:17:41;;;;;;;0.80;0.80;;;21.00;58.60;;;;;;5028200;28;20293;-48
2021/12/13 13:20:14;;;;;;;0.77;0.77;;;20.90;58.60;;;;;;5027993;28;20287;-48
2021/12/13 13:22:46;;;;;;;1.08;0.95;;;20.90;58.50;;;;;;5029179;28;20235;-43
2021/12/13 13:25:20;;;;;;;1.27;0.80;;;20.90;58.50;;;;;;5027174;28;20204;-49
2021/12/13 13:27:51;;;;;;;0.80;0.80;;;20.90;58.50;;;;;;5022728;28;20306;-45
2021/12/13 13:30:25;;;;;;;0.60;0.60;;;20.90;58.60;;;;;;5017956;28;20250;-45
2021/12/13 13:32:58;;;;;;;0.60;0.60;;;20.90;58.60;;;;;;5030007;28;20629;-50
2021/12/13 13:35:28;;;;;;;1.27;0.93;;;20.90;58.60;;;;;;5039214;28;20286;-45
2021/12/13 13:38:00;;;;;;;0.82;0.82;;;20.90;58.60;;;;;;5027031;28;20664;-45
2021/12/13 13:40:33;;;;;;;0.60;0.60;;;20.90;58.60;;;;;;5056546;22;20200;-40
2021/12/13 13:43:05;;;;;;;0.70;0.70;;;20.90;58.60;;;;;;4987473;28;20698;-46